Pearce, Arizona
Current Conditions -  °F | °C
As of 9:56 AM on Thursday 27 Nov 2014 (Local Time) from KDUG Reporting Station
Clear Clear  
Wind Chill: 60°   Ceiling: Unl
Heat Index: 60°   Visibility: 10mi
Dew Point: 22°   Wind: 7mph
Humidity: 23%   Direction: 270°W
Pressure: 30.36"   Gusts: NA
Location:  31.91°N, 109.82°W
Report Text: KDUG 271656Z AUTO 27006KT 10SM CLR 16/M06 A3036 RMK AO2 SLP252 T01561056
Loading
Personal Weather Stations






























Interactive Weather Map New forecast layout! Learn more

10-Day Weather Forecast

Advertisements
Track Severe Weather on mobile